KAMG

Bacon County Airport

Alma, Georgia, USA
METAR KAMG 221453Z AUTO VRB05KT 10SM CLR 18/07 A3029 RMK AO2 SLP256 T01780067 50009
Observed Flight Rules
Oct-22 @ 14:53 UTC (16 minutes ago) Visual Flight Rules
Wind Visibility Clouds
Variable at 5 knots 10 miles
  • Clear skies
Temperatures Readings
Current 18°C / 64°F
Dewpoint 7°C / 45°F
Humidity 49%
Altimeter 30.29" Hg
Pressure 1025.6 hPa
Elevation 59
METAR KAMG 221453Z AUTO VRB05KT 10SM CLR 18/07 A3029 RMK AO2 SLP256 T01780067 50009
Observed Flight Rules
Oct-22 @ 14:53 UTC
(16 minutes ago)
VFR
Wind Visibility
Variable at 5 knots 10 miles
Clouds
  • Clear skies
Temperature Dewpoint
18°C / 64°F 7°C / 45°F
Humidity Altimeter Pressure
49% 30.29" Hg 1025.6 hPa